createdAt,value
2023-10-26T00:01:44.064Z,100.00
2023-10-26T00:04:12.294Z,100.00
2023-10-26T00:06:40.885Z,100.00
2023-10-26T00:09:11.067Z,100.00
2023-10-26T00:11:39.506Z,100.00
2023-10-26T00:14:08.419Z,100.00
2023-10-26T00:16:37.253Z,100.00
2023-10-26T00:19:06.570Z,100.00
2023-10-26T00:21:35.185Z,100.00
2023-10-26T00:24:03.799Z,100.00
2023-10-26T00:26:33.576Z,100.00
2023-10-26T00:29:02.628Z,100.00
2023-10-26T00:31:31.219Z,100.00
2023-10-26T00:34:00.537Z,100.00
2023-10-26T00:36:28.918Z,100.00
2023-10-26T00:38:57.414Z,100.00
2023-10-26T00:41:25.889Z,100.00
2023-10-26T00:43:57.020Z,100.00
2023-10-26T00:46:26.361Z,100.00
2023-10-26T00:48:54.943Z,100.00
2023-10-26T00:51:23.571Z,100.00
2023-10-26T00:56:44.242Z,100.00
2023-10-26T00:59:17.829Z,100.00
2023-10-26T01:01:48.445Z,100.00
2023-10-26T01:04:19.799Z,100.00
2023-10-26T01:06:50.422Z,100.00
2023-10-26T01:09:21.501Z,100.00
2023-10-26T01:11:50.202Z,100.00
2023-10-26T01:14:34.033Z,100.00
2023-10-26T01:17:04.549Z,100.00
2023-10-26T01:19:39.742Z,100.00
2023-10-26T01:22:09.687Z,100.00
2023-10-26T01:24:39.126Z,100.00
2023-10-26T01:27:07.744Z,100.00
2023-10-26T01:29:36.037Z,100.00
2023-10-26T01:32:04.017Z,100.00
2023-10-26T01:34:33.523Z,100.00
2023-10-26T01:37:01.427Z,100.00
2023-10-26T01:39:30.890Z,100.00
2023-10-26T01:41:59.012Z,100.00
2023-10-26T01:44:27.004Z,100.00
2023-10-26T01:46:55.124Z,100.00
2023-10-26T01:49:23.862Z,100.00
2023-10-26T01:51:52.004Z,100.00
2023-10-26T01:54:20.129Z,100.00
2023-10-26T01:56:49.868Z,100.00
2023-10-26T01:59:18.442Z,100.00
2023-10-26T02:01:46.901Z,100.00
2023-10-26T02:04:14.864Z,100.00
2023-10-26T02:06:43.057Z,100.00
2023-10-26T02:09:11.208Z,100.00
2023-10-26T02:11:40.276Z,100.00
2023-10-26T02:14:10.523Z,100.00
2023-10-26T02:16:38.644Z,100.00
2023-10-26T02:19:07.016Z,100.00
2023-10-26T02:21:36.624Z,100.00
2023-10-26T02:24:05.233Z,100.00
2023-10-26T02:26:33.340Z,100.00
2023-10-26T02:29:01.440Z,100.00
2023-10-26T02:31:30.639Z,100.00
2023-10-26T02:33:58.678Z,100.00
2023-10-26T02:36:26.915Z,100.00
2023-10-26T02:38:55.058Z,100.00
2023-10-26T02:41:23.004Z,100.00
2023-10-26T02:43:51.399Z,100.00
2023-10-26T02:46:19.736Z,100.00
2023-10-26T02:48:49.087Z,100.00
2023-10-26T02:51:17.355Z,100.00
2023-10-26T02:53:46.427Z,100.00
2023-10-26T02:56:14.818Z,100.00
2023-10-26T02:58:42.973Z,100.00
2023-10-26T03:01:10.951Z,100.00
2023-10-26T03:03:39.113Z,100.00
2023-10-26T03:06:08.918Z,100.00
2023-10-26T03:08:36.946Z,100.00
2023-10-26T03:11:05.269Z,100.00
2023-10-26T03:13:33.472Z,100.00
2023-10-26T03:16:01.693Z,100.00
2023-10-26T03:18:29.704Z,100.00
2023-10-26T03:20:57.846Z,100.00
2023-10-26T03:23:27.282Z,100.00
2023-10-26T03:25:55.273Z,100.00
2023-10-26T03:28:23.489Z,100.00
2023-10-26T03:30:54.521Z,100.00
2023-10-26T03:33:22.977Z,100.00
2023-10-26T03:35:52.632Z,100.00
2023-10-26T03:38:20.714Z,100.00
2023-10-26T03:40:52.998Z,100.00
2023-10-26T03:43:21.223Z,100.00
2023-10-26T03:45:49.269Z,100.00
2023-10-26T03:48:17.963Z,100.00
2023-10-26T03:50:46.142Z,100.00
2023-10-26T03:53:14.943Z,100.00
2023-10-26T03:55:42.965Z,100.00
2023-10-26T03:58:15.479Z,100.00
2023-10-26T04:00:43.761Z,100.00
2023-10-26T04:03:12.161Z,100.00
2023-10-26T04:05:40.697Z,100.00
2023-10-26T04:08:08.675Z,100.00
2023-10-26T04:10:36.771Z,100.00
2023-10-26T04:13:05.045Z,100.00
2023-10-26T04:15:34.794Z,100.00
2023-10-26T04:18:05.738Z,100.00
2023-10-26T04:20:34.485Z,100.00
2023-10-26T04:23:02.462Z,100.00
2023-10-26T04:25:46.512Z,100.00
2023-10-26T04:28:21.316Z,100.00
2023-10-26T04:30:51.488Z,100.00
2023-10-26T04:33:20.217Z,100.00
2023-10-26T04:35:49.335Z,100.00
2023-10-26T04:38:17.502Z,100.00
2023-10-26T04:40:46.241Z,100.00
2023-10-26T04:43:15.146Z,100.00
2023-10-26T04:45:43.643Z,100.00
2023-10-26T04:48:13.440Z,100.00
2023-10-26T04:50:43.920Z,100.00
2023-10-26T04:53:12.181Z,100.00
2023-10-26T04:55:40.270Z,100.00
2023-10-26T04:58:09.208Z,100.00
2023-10-26T05:00:37.342Z,100.00
2023-10-26T05:03:05.505Z,100.00
2023-10-26T05:05:35.943Z,100.00
2023-10-26T05:08:06.412Z,100.00
2023-10-26T05:10:34.943Z,100.00
2023-10-26T05:13:04.522Z,100.00
2023-10-26T05:15:33.138Z,100.00
2023-10-26T05:18:01.269Z,100.00
2023-10-26T05:20:31.485Z,100.00
2023-10-26T05:23:01.206Z,100.00
2023-10-26T05:25:29.426Z,100.00
2023-10-26T05:27:57.468Z,100.00
2023-10-26T05:30:25.977Z,100.00
2023-10-26T05:32:54.227Z,100.00
2023-10-26T05:35:22.623Z,100.00
2023-10-26T05:37:50.624Z,100.00
2023-10-26T05:40:20.592Z,100.00
2023-10-26T05:42:48.711Z,100.00
2023-10-26T05:45:17.156Z,100.00
2023-10-26T05:47:47.660Z,100.00
2023-10-26T05:50:15.951Z,100.00
2023-10-26T05:52:44.036Z,100.00
2023-10-26T05:55:12.319Z,100.00
2023-10-26T05:57:41.594Z,100.00
2023-10-26T06:00:11.045Z,100.00
2023-10-26T06:02:42.065Z,100.00
2023-10-26T06:05:10.258Z,100.00
2023-10-26T06:07:38.437Z,100.00
2023-10-26T06:10:07.726Z,100.00
2023-10-26T06:12:35.796Z,100.00
2023-10-26T06:15:05.592Z,100.00
2023-10-26T06:17:34.612Z,100.00
2023-10-26T06:20:02.987Z,100.00
2023-10-26T06:22:31.639Z,100.00
2023-10-26T06:24:59.724Z,100.00
2023-10-26T06:27:27.848Z,100.00
2023-10-26T06:29:55.974Z,100.00
2023-10-26T06:32:25.536Z,100.00
2023-10-26T06:34:53.655Z,100.00
2023-10-26T06:37:21.654Z,100.00
2023-10-26T06:39:49.701Z,100.00
2023-10-26T06:42:17.891Z,100.00
2023-10-26T06:44:47.467Z,100.00
2023-10-26T06:47:16.526Z,100.00
2023-10-26T06:49:45.914Z,100.00
2023-10-26T06:52:14.546Z,100.00
2023-10-26T06:54:43.182Z,100.00
2023-10-26T06:57:11.944Z,100.00
2023-10-26T06:59:40.072Z,100.00
2023-10-26T07:02:10.420Z,100.00
2023-10-26T07:04:41.211Z,100.00
2023-10-26T07:07:10.686Z,100.00
2023-10-26T07:09:39.304Z,100.00
2023-10-26T07:12:08.507Z,100.00
2023-10-26T07:14:35.620Z,100.00
2023-10-26T07:17:04.101Z,100.00
2023-10-26T07:19:32.581Z,100.00
2023-10-26T07:22:00.854Z,100.00
2023-10-26T07:24:30.663Z,100.00
2023-10-26T07:26:59.286Z,100.00
2023-10-26T07:29:27.429Z,100.00
2023-10-26T07:31:57.204Z,100.00
2023-10-26T07:34:26.238Z,100.00
2023-10-26T07:36:54.682Z,100.00
2023-10-26T07:39:45.879Z,100.00
2023-10-26T07:42:14.076Z,100.00
2023-10-26T07:44:42.782Z,100.00
2023-10-26T07:47:11.760Z,100.00
2023-10-26T07:49:40.039Z,100.00
2023-10-26T07:52:08.511Z,100.00
2023-10-26T07:54:37.271Z,100.00
2023-10-26T07:57:06.298Z,100.00
2023-10-26T07:59:36.442Z,100.00
2023-10-26T08:02:05.641Z,100.00
2023-10-26T08:04:34.654Z,100.00
2023-10-26T08:07:02.883Z,100.00
2023-10-26T08:09:33.485Z,100.00
2023-10-26T08:12:02.567Z,100.00
2023-10-26T08:16:09.572Z,100.00
2023-10-26T08:17:22.293Z,100.00
2023-10-26T08:19:53.536Z,100.00
2023-10-26T08:22:22.433Z,100.00
2023-10-26T08:24:51.207Z,100.00
2023-10-26T08:27:19.814Z,100.00
2023-10-26T08:29:48.881Z,100.00
2023-10-26T08:32:18.507Z,100.00
2023-10-26T08:34:48.661Z,100.00
2023-10-26T08:37:18.779Z,100.00
2023-10-26T08:39:47.236Z,100.00
2023-10-26T08:42:17.090Z,100.00
2023-10-26T08:44:46.256Z,100.00
2023-10-26T08:47:18.643Z,100.00
2023-10-26T08:50:08.213Z,100.00
2023-10-26T08:52:43.773Z,100.00
2023-10-26T08:55:12.369Z,100.00
2023-10-26T08:57:48.515Z,100.00
2023-10-26T09:00:17.820Z,100.00
2023-10-26T09:02:46.962Z,99.38
2023-10-26T09:05:17.527Z,97.02
2023-10-26T09:07:46.202Z,100.00
2023-10-26T09:10:14.968Z,99.11
2023-10-26T09:13:01.358Z,100.00
2023-10-26T09:15:30.335Z,100.00
2023-10-26T09:18:01.560Z,100.00
2023-10-26T09:20:32.988Z,100.00
2023-10-26T09:23:01.649Z,100.00
2023-10-26T09:25:30.678Z,100.00
2023-10-26T09:28:04.299Z,100.00
2023-10-26T09:30:34.114Z,100.00
2023-10-26T09:33:06.500Z,100.00
2023-10-26T09:35:36.783Z,100.00
2023-10-26T09:38:05.548Z,100.00
2023-10-26T09:40:33.724Z,100.00
2023-10-26T09:43:02.445Z,100.00
2023-10-26T09:45:31.141Z,100.00
2023-10-26T09:48:04.560Z,100.00
2023-10-26T09:50:39.382Z,100.00
2023-10-26T09:55:39.804Z,100.00
2023-10-26T09:58:09.928Z,100.00
2023-10-26T10:00:38.566Z,100.00
2023-10-26T10:03:14.414Z,100.00
2023-10-26T10:05:45.188Z,100.00
2023-10-26T10:08:15.403Z,100.00
2023-10-26T10:11:18.509Z,100.00
2023-10-26T10:13:47.792Z,100.00
2023-10-26T10:16:52.069Z,100.00
2023-10-26T10:19:24.929Z,100.00
2023-10-26T10:21:54.231Z,100.00
2023-10-26T10:24:55.892Z,100.00
2023-10-26T10:27:24.543Z,98.23
2023-10-26T10:29:53.244Z,96.78
2023-10-26T10:32:53.379Z,92.71
2023-10-26T10:35:40.055Z,94.88
2023-10-26T10:38:22.562Z,94.93
2023-10-26T10:41:20.193Z,94.63
2023-10-26T10:43:49.332Z,94.02
2023-10-26T10:46:23.152Z,92.85
2023-10-26T10:49:12.812Z,96.85
2023-10-26T10:51:42.796Z,100.00
2023-10-26T10:56:49.414Z,100.00
2023-10-26T10:59:22.163Z,100.00
2023-10-26T11:01:51.756Z,100.00
2023-10-26T11:04:23.319Z,100.00
2023-10-26T11:06:51.629Z,100.00
2023-10-26T11:09:24.016Z,96.31
2023-10-26T11:11:54.328Z,86.66
2023-10-26T11:14:23.780Z,84.37
2023-10-26T11:16:53.508Z,86.66
2023-10-26T11:19:21.598Z,86.99
2023-10-26T11:21:56.793Z,86.99
2023-10-26T11:24:32.575Z,85.10
2023-10-26T11:27:10.435Z,83.95
2023-10-26T11:29:39.239Z,83.43
2023-10-26T11:32:19.964Z,83.73
2023-10-26T11:35:04.573Z,87.27
2023-10-26T11:37:33.534Z,90.20
2023-10-26T11:40:02.151Z,90.48
2023-10-26T11:42:48.492Z,93.33
2023-10-26T11:45:17.687Z,95.63
2023-10-26T11:47:50.166Z,95.16
2023-10-26T11:50:23.314Z,97.83
2023-10-26T11:52:52.426Z,100.00
2023-10-26T11:55:21.746Z,100.00
2023-10-26T11:57:51.891Z,100.00
2023-10-26T12:00:21.829Z,100.00
2023-10-26T12:02:50.211Z,100.00
2023-10-26T12:05:19.705Z,100.00
2023-10-26T12:07:49.767Z,100.00
2023-10-26T12:10:21.710Z,100.00
2023-10-26T12:12:52.503Z,100.00
2023-10-26T12:15:24.088Z,100.00
2023-10-26T12:17:52.828Z,100.00
2023-10-26T12:20:23.000Z,100.00
2023-10-26T12:22:53.508Z,100.00
2023-10-26T12:25:22.262Z,100.00
2023-10-26T12:28:12.191Z,100.00
2023-10-26T12:30:44.546Z,100.00
2023-10-26T12:33:15.628Z,100.00
2023-10-26T12:35:49.914Z,100.00
2023-10-26T12:38:20.965Z,100.00
2023-10-26T12:40:50.320Z,100.00
2023-10-26T12:43:20.402Z,100.00
2023-10-26T12:45:48.918Z,100.00
2023-10-26T12:48:17.392Z,100.00
2023-10-26T12:50:48.135Z,100.00
2023-10-26T12:53:17.080Z,100.00
2023-10-26T12:55:46.173Z,100.00
2023-10-26T12:58:16.304Z,100.00
2023-10-26T13:00:46.855Z,100.00
2023-10-26T13:03:15.629Z,100.00
2023-10-26T13:05:44.155Z,100.00
2023-10-26T13:08:12.847Z,100.00
2023-10-26T13:10:41.678Z,100.00
2023-10-26T13:13:10.397Z,100.00
2023-10-26T13:15:40.648Z,100.00
2023-10-26T13:18:10.491Z,100.00
2023-10-26T13:20:39.042Z,100.00
2023-10-26T13:23:07.403Z,100.00
2023-10-26T13:25:37.975Z,100.00
2023-10-26T13:28:06.916Z,100.00
2023-10-26T13:30:35.381Z,100.00
2023-10-26T13:33:04.174Z,100.00
2023-10-26T13:35:34.648Z,100.00
2023-10-26T13:38:03.090Z,100.00
2023-10-26T13:40:31.847Z,100.00
2023-10-26T13:43:02.015Z,100.00
2023-10-26T13:45:30.730Z,100.00
2023-10-26T13:48:01.024Z,100.00
2023-10-26T13:50:30.682Z,100.00
2023-10-26T13:53:01.333Z,100.00
2023-10-26T13:55:29.776Z,100.00
2023-10-26T13:58:01.617Z,100.00
2023-10-26T14:00:30.469Z,100.00
2023-10-26T14:02:59.306Z,100.00
2023-10-26T14:05:30.668Z,100.00
2023-10-26T14:08:01.081Z,100.00
2023-10-26T14:10:29.532Z,100.00
2023-10-26T14:12:58.314Z,100.00
2023-10-26T14:15:28.399Z,100.00
2023-10-26T14:17:56.770Z,100.00
2023-10-26T14:20:26.383Z,100.00
2023-10-26T14:22:54.932Z,100.00
2023-10-26T14:25:25.104Z,100.00
2023-10-26T14:27:54.008Z,100.00
2023-10-26T14:30:22.845Z,100.00
2023-10-26T14:32:51.589Z,100.00
2023-10-26T14:35:20.343Z,100.00
2023-10-26T14:37:51.613Z,100.00
2023-10-26T14:40:20.875Z,100.00
2023-10-26T14:42:50.473Z,100.00
2023-10-26T14:45:19.115Z,100.00
2023-10-26T14:47:47.856Z,100.00
2023-10-26T14:50:16.892Z,100.00
2023-10-26T14:52:45.253Z,100.00
2023-10-26T14:55:17.409Z,100.00
2023-10-26T14:57:46.179Z,100.00
2023-10-26T15:00:18.044Z,100.00
2023-10-26T15:02:46.846Z,100.00
2023-10-26T15:05:16.020Z,100.00
2023-10-26T15:07:44.482Z,100.00
2023-10-26T15:10:24.205Z,100.00
2023-10-26T15:12:55.631Z,100.00
2023-10-26T15:15:26.242Z,100.00
2023-10-26T15:17:55.121Z,100.00
2023-10-26T15:20:23.643Z,100.00
2023-10-26T15:22:52.394Z,100.00
2023-10-26T15:25:21.290Z,100.00
2023-10-26T15:27:49.437Z,100.00
2023-10-26T15:30:17.257Z,100.00
2023-10-26T15:32:46.902Z,100.00
2023-10-26T15:35:15.107Z,100.00
2023-10-26T15:37:42.967Z,100.00
2023-10-26T15:40:14.069Z,100.00
2023-10-26T15:42:42.199Z,100.00
2023-10-26T15:45:12.500Z,100.00
2023-10-26T15:47:40.788Z,100.00
2023-10-26T15:50:11.322Z,100.00
2023-10-26T15:52:39.545Z,100.00
2023-10-26T15:55:08.117Z,100.00
2023-10-26T15:57:37.920Z,100.00
2023-10-26T16:00:10.838Z,100.00
2023-10-26T16:02:39.196Z,100.00
2023-10-26T16:05:07.361Z,100.00
2023-10-26T16:07:37.993Z,100.00
2023-10-26T16:10:06.959Z,100.00
2023-10-26T16:12:35.614Z,100.00
2023-10-26T16:15:03.954Z,100.00
2023-10-26T16:17:33.122Z,100.00
2023-10-26T16:20:00.931Z,100.00
2023-10-26T16:22:28.822Z,100.00
2023-10-26T16:24:58.225Z,100.00
2023-10-26T16:27:26.838Z,100.00
2023-10-26T16:29:54.899Z,100.00
2023-10-26T16:32:27.643Z,100.00
2023-10-26T16:34:56.433Z,100.00
2023-10-26T16:37:24.412Z,100.00
2023-10-26T16:39:52.641Z,100.00
2023-10-26T16:42:21.883Z,100.00
2023-10-26T16:44:49.862Z,100.00
2023-10-26T16:47:17.865Z,100.00
2023-10-26T16:49:45.860Z,100.00
2023-10-26T16:52:13.996Z,100.00
2023-10-26T16:54:42.335Z,100.00
2023-10-26T16:57:11.143Z,100.00
2023-10-26T16:59:40.472Z,100.00
2023-10-26T17:02:09.641Z,100.00
2023-10-26T17:04:38.277Z,100.00
2023-10-26T17:07:06.150Z,100.00
2023-10-26T17:09:34.153Z,100.00
2023-10-26T17:12:06.179Z,100.00
2023-10-26T17:14:34.975Z,100.00
2023-10-26T17:17:04.672Z,100.00
2023-10-26T17:19:32.650Z,100.00
2023-10-26T17:22:00.530Z,100.00
2023-10-26T17:24:28.548Z,100.00
2023-10-26T17:26:56.415Z,100.00
2023-10-26T17:29:24.794Z,100.00
2023-10-26T17:31:53.264Z,100.00
2023-10-26T17:34:23.388Z,100.00
2023-10-26T17:36:51.197Z,100.00
2023-10-26T17:39:19.443Z,100.00
2023-10-26T17:41:47.718Z,100.00
2023-10-26T17:44:17.602Z,100.00
2023-10-26T17:46:45.873Z,100.00
2023-10-26T17:49:16.316Z,100.00
2023-10-26T17:51:45.641Z,100.00
2023-10-26T17:54:16.299Z,100.00
2023-10-26T17:56:44.113Z,100.00
2023-10-26T17:59:12.269Z,100.00
2023-10-26T18:01:40.614Z,100.00
2023-10-26T18:04:08.819Z,100.00
2023-10-26T18:06:36.835Z,100.00
2023-10-26T18:09:06.600Z,100.00
2023-10-26T18:11:34.478Z,100.00
2023-10-26T18:14:02.354Z,100.00
2023-10-26T18:16:29.960Z,100.00
2023-10-26T18:19:00.627Z,100.00
2023-10-26T18:21:28.773Z,100.00
2023-10-26T18:23:57.090Z,100.00
2023-10-26T18:26:26.981Z,100.00
2023-10-26T18:28:55.049Z,100.00
2023-10-26T18:31:23.599Z,100.00
2023-10-26T18:33:55.462Z,100.00
2023-10-26T18:36:24.931Z,100.00
2023-10-26T18:38:52.693Z,100.00
2023-10-26T18:41:23.227Z,100.00
2023-10-26T18:43:55.417Z,100.00
2023-10-26T18:46:23.622Z,100.00
2023-10-26T18:48:51.626Z,100.00
2023-10-26T18:51:20.021Z,100.00
2023-10-26T18:53:49.702Z,100.00
2023-10-26T18:56:20.301Z,100.00
2023-10-26T18:58:48.063Z,100.00
2023-10-26T19:01:17.791Z,100.00
2023-10-26T19:03:57.934Z,100.00
2023-10-26T19:06:30.777Z,100.00
2023-10-26T19:09:00.845Z,100.00
2023-10-26T19:11:29.286Z,100.00
2023-10-26T19:13:57.734Z,100.00
2023-10-26T19:16:27.157Z,100.00
2023-10-26T19:18:55.817Z,100.00
2023-10-26T19:21:24.273Z,100.00
2023-10-26T19:23:52.132Z,100.00
2023-10-26T19:26:20.161Z,100.00
2023-10-26T19:28:48.120Z,100.00
2023-10-26T19:31:16.170Z,100.00
2023-10-26T19:33:47.958Z,100.00
2023-10-26T19:36:16.515Z,100.00
2023-10-26T19:38:45.441Z,100.00
2023-10-26T19:41:15.840Z,100.00
2023-10-26T19:43:43.799Z,100.00
2023-10-26T19:46:11.894Z,100.00
2023-10-26T19:48:40.255Z,100.00
2023-10-26T19:51:14.710Z,100.00
2023-10-26T19:53:45.318Z,100.00
2023-10-26T19:56:13.588Z,100.00
2023-10-26T19:58:41.513Z,100.00
2023-10-26T20:01:13.953Z,100.00
2023-10-26T20:03:42.178Z,100.00
2023-10-26T20:06:11.576Z,100.00
2023-10-26T20:08:40.352Z,100.00
2023-10-26T20:11:10.826Z,100.00
2023-10-26T20:13:39.183Z,100.00
2023-10-26T20:16:07.517Z,100.00
2023-10-26T20:18:38.735Z,100.00
2023-10-26T20:21:06.824Z,100.00
2023-10-26T20:23:36.062Z,100.00
2023-10-26T20:26:04.375Z,100.00
2023-10-26T20:28:32.317Z,100.00
2023-10-26T20:31:02.851Z,100.00
2023-10-26T20:33:30.562Z,100.00
2023-10-26T20:35:58.983Z,100.00
2023-10-26T20:38:27.437Z,100.00
2023-10-26T20:40:59.132Z,100.00
2023-10-26T20:43:27.071Z,100.00
2023-10-26T20:45:58.802Z,100.00
2023-10-26T20:48:27.022Z,100.00
2023-10-26T20:50:56.635Z,100.00
2023-10-26T20:53:28.319Z,100.00
2023-10-26T20:56:00.227Z,100.00
2023-10-26T20:58:29.026Z,100.00
2023-10-26T21:00:58.895Z,100.00
2023-10-26T21:03:27.050Z,100.00
2023-10-26T21:05:55.678Z,100.00
2023-10-26T21:08:23.683Z,100.00
2023-10-26T21:10:51.847Z,100.00
2023-10-26T21:13:21.881Z,100.00
2023-10-26T21:15:49.933Z,100.00
2023-10-26T21:18:18.030Z,100.00
2023-10-26T21:20:45.952Z,100.00
2023-10-26T21:23:13.966Z,100.00
2023-10-26T21:25:42.993Z,100.00
2023-10-26T21:28:11.567Z,100.00
2023-10-26T21:30:41.209Z,100.00
2023-10-26T21:33:09.330Z,100.00
2023-10-26T21:35:46.781Z,100.00
2023-10-26T21:38:15.123Z,100.00
2023-10-26T21:40:42.928Z,100.00
2023-10-26T21:43:10.709Z,100.00
2023-10-26T21:45:41.017Z,100.00
2023-10-26T21:48:11.260Z,100.00
2023-10-26T21:50:40.099Z,100.00
2023-10-26T21:53:08.614Z,100.00
2023-10-26T21:55:38.576Z,100.00
2023-10-26T21:58:06.931Z,100.00
2023-10-26T22:00:35.209Z,100.00
2023-10-26T22:03:06.233Z,100.00
2023-10-26T22:05:34.325Z,100.00
2023-10-26T22:08:02.338Z,100.00
2023-10-26T22:10:30.221Z,100.00
2023-10-26T22:12:58.063Z,100.00
2023-10-26T22:15:26.932Z,100.00
2023-10-26T22:17:55.074Z,100.00
2023-10-26T22:20:24.779Z,100.00
2023-10-26T22:22:52.671Z,100.00
2023-10-26T22:25:21.612Z,100.00
2023-10-26T22:27:49.711Z,100.00
2023-10-26T22:30:18.235Z,100.00
2023-10-26T22:32:46.592Z,100.00
2023-10-26T22:35:14.670Z,100.00
2023-10-26T22:37:44.385Z,100.00
2023-10-26T22:40:13.730Z,100.00
2023-10-26T22:42:41.597Z,100.00
2023-10-26T22:45:12.550Z,100.00
2023-10-26T22:47:40.639Z,100.00
2023-10-26T22:50:10.015Z,100.00
2023-10-26T22:52:38.204Z,100.00
2023-10-26T22:55:09.096Z,100.00
2023-10-26T22:57:37.217Z,100.00
2023-10-26T23:00:07.611Z,100.00
2023-10-26T23:02:36.038Z,100.00
2023-10-26T23:05:05.204Z,100.00
2023-10-26T23:07:34.589Z,100.00
2023-10-26T23:10:03.127Z,100.00
2023-10-26T23:12:33.307Z,100.00
2023-10-26T23:15:01.408Z,100.00
2023-10-26T23:17:29.727Z,100.00
2023-10-26T23:19:57.847Z,100.00
2023-10-26T23:22:25.935Z,100.00
2023-10-26T23:24:54.702Z,100.00
2023-10-26T23:27:23.217Z,100.00
2023-10-26T23:29:52.574Z,100.00
2023-10-26T23:32:20.719Z,100.00
2023-10-26T23:34:48.856Z,100.00
2023-10-26T23:37:17.557Z,100.00
2023-10-26T23:39:45.897Z,100.00
2023-10-26T23:42:14.029Z,100.00
2023-10-26T23:44:42.196Z,100.00
2023-10-26T23:47:13.213Z,100.00
2023-10-26T23:49:41.213Z,100.00
2023-10-26T23:52:09.292Z,100.00
2023-10-26T23:54:37.280Z,100.00
2023-10-26T23:57:05.768Z,100.00
2023-10-26T23:59:33.979Z,100.00
